Time;durP1;ratioP1;P1;durP2;ratioP2;P2;SDS_P1;SDS_P2;PMS_P1;PMS_P2;Temp;Humidity;BMP_temperature;BMP_pressure;BME280_temperature;BME280_humidity;BME280_pressure;Samples;Min_cycle;Max_cycle;Signal;HPM_P1;HPM_P2
2023/01/10 00:03:59;;;;;;;15.70;9.50;;;5.80;99.90;;;;;;12566843;28;20045;-86
2023/01/10 00:10:00;;;;;;;19.15;8.73;;;5.80;99.90;;;;;;12584556;28;20052;-86
2023/01/10 00:16:07;;;;;;;14.93;8.00;;;5.90;99.90;;;;;;12561540;28;20044;-85
2023/01/10 00:22:09;;;;;;;15.98;8.10;;;5.90;99.90;;;;;;12575828;28;20128;-86
2023/01/10 00:34:13;;;;;;;16.33;7.28;;;5.80;99.90;;;;;;12584886;28;20048;-85
2023/01/10 00:40:15;;;;;;;10.77;6.45;;;5.80;99.90;;;;;;12590118;28;20090;-86
2023/01/10 00:46:18;;;;;;;11.70;6.55;;;5.90;99.90;;;;;;12578940;28;20182;-86
2023/01/10 00:52:20;;;;;;;13.95;6.57;;;5.90;99.90;;;;;;12580425;28;20047;-85
2023/01/10 00:58:22;;;;;;;13.55;5.47;;;5.80;99.90;;;;;;12564316;28;20489;-86
2023/01/10 01:04:24;;;;;;;12.70;4.95;;;5.80;99.90;;;;;;12580569;28;20037;-85
2023/01/10 01:10:25;;;;;;;8.73;4.55;;;5.80;99.90;;;;;;12580552;28;20045;-85
2023/01/10 01:16:27;;;;;;;9.27;3.80;;;5.60;99.90;;;;;;12576971;28;20052;-85
2023/01/10 01:22:29;;;;;;;6.90;2.72;;;5.60;99.90;;;;;;12570295;28;20037;-85
2023/01/10 01:28:31;;;;;;;9.93;2.40;;;5.60;99.90;;;;;;12561084;28;20057;-85
2023/01/10 01:34:32;;;;;;;7.35;2.35;;;5.60;99.90;;;;;;12590703;28;20397;-85
2023/01/10 01:40:36;;;;;;;8.23;1.75;;;5.70;99.90;;;;;;12557100;28;20044;-85
2023/01/10 01:46:39;;;;;;;7.97;1.87;;;5.60;99.90;;;;;;12587863;28;20048;-86
2023/01/10 01:52:41;;;;;;;5.22;2.10;;;5.60;99.90;;;;;;12560989;28;20045;-87
2023/01/10 01:59:00;;;;;;;8.80;2.55;;;5.60;99.90;;;;;;12585646;28;20044;-86
2023/01/10 02:05:11;;;;;;;3.78;2.08;;;5.60;99.90;;;;;;12583594;28;20052;-86
2023/01/10 02:11:13;;;;;;;11.13;2.35;;;5.60;99.90;;;;;;12586288;28;20497;-86
2023/01/10 02:17:15;;;;;;;7.80;2.80;;;5.60;99.90;;;;;;12584845;28;20049;-85
2023/01/10 02:23:35;;;;;;;7.97;2.55;;;5.50;99.90;;;;;;12591164;28;20044;-85
2023/01/10 02:30:00;;;;;;;9.20;2.90;;;5.50;99.90;;;;;;12584190;28;20125;-86
2023/01/10 02:36:11;;;;;;;11.30;3.50;;;5.50;99.90;;;;;;12591709;28;20063;-85
2023/01/10 02:42:22;;;;;;;11.50;3.70;;;5.50;99.90;;;;;;12586792;28;20041;-85
2023/01/10 02:48:24;;;;;;;10.75;4.18;;;5.50;99.90;;;;;;12583981;28;20045;-85
2023/01/10 02:54:29;;;;;;;12.63;4.28;;;5.40;99.90;;;;;;12586799;28;20044;-85
2023/01/10 03:00:34;;;;;;;;;;;5.50;99.90;;;;;;12579444;28;20051;-85
2023/01/10 03:06:50;;;;;;;21.30;6.00;;;5.40;99.90;;;;;;12591118;28;20058;-85
2023/01/10 03:13:22;;;;;;;18.58;7.53;;;5.40;99.90;;;;;;12587580;28;20044;-85
2023/01/10 03:19:30;;;;;;;16.98;6.97;;;5.50;99.90;;;;;;12576422;28;20075;-85
2023/01/10 03:25:36;;;;;;;18.98;7.18;;;5.60;99.90;;;;;;12588652;28;20078;-86
2023/01/10 03:31:51;;;;;;;21.38;7.03;;;5.60;99.90;;;;;;12583701;28;20052;-85
2023/01/10 03:37:57;;;;;;;21.63;7.18;;;5.60;99.90;;;;;;12583849;28;20087;-85
2023/01/10 03:50:28;;;;;;;20.63;6.70;;;5.60;99.90;;;;;;12577820;28;20056;-85
2023/01/10 03:56:29;;;;;;;19.98;6.43;;;5.50;99.90;;;;;;12583595;28;20797;-85
2023/01/10 04:02:31;;;;;;;16.25;6.63;;;5.60;99.90;;;;;;12553402;28;20040;-85
2023/01/10 04:08:33;;;;;;;17.83;6.47;;;5.50;99.90;;;;;;12586696;28;20056;-85
2023/01/10 04:14:35;;;;;;;18.67;6.68;;;5.40;99.90;;;;;;12583530;28;20040;-85
2023/01/10 04:20:37;;;;;;;19.55;6.60;;;5.30;99.90;;;;;;12564226;28;20041;-85
2023/01/10 04:26:38;;;;;;;19.55;5.63;;;5.20;99.90;;;;;;12587200;28;20040;-85
2023/01/10 04:32:40;;;;;;;17.50;5.90;;;5.30;99.90;;;;;;12558995;28;20056;-85
2023/01/10 04:38:42;;;;;;;16.40;6.38;;;5.30;99.90;;;;;;12572506;28;20041;-85
2023/01/10 04:44:44;;;;;;;22.23;6.18;;;5.10;99.90;;;;;;12580682;28;20049;-85
2023/01/10 04:50:50;;;;;;;18.08;6.60;;;5.00;99.90;;;;;;12586780;28;20043;-85
2023/01/10 04:56:51;;;;;;;18.67;6.57;;;5.00;99.90;;;;;;12584333;28;20117;-85
2023/01/10 05:02:57;;;;;;;20.13;6.40;;;5.00;99.90;;;;;;12582650;28;20045;-85
2023/01/10 05:08:59;;;;;;;16.83;5.90;;;4.90;99.90;;;;;;12570295;28;20055;-85
2023/01/10 05:15:00;;;;;;;21.25;6.90;;;4.80;99.90;;;;;;12580726;28;20047;-85
2023/01/10 05:21:05;;;;;;;19.52;6.72;;;4.80;99.90;;;;;;12579244;28;20515;-86
2023/01/10 05:27:08;;;;;;;18.33;5.95;;;4.80;99.90;;;;;;12579663;28;20055;-85
2023/01/10 05:33:09;;;;;;;24.33;6.60;;;4.90;99.90;;;;;;12581461;28;20060;-85
2023/01/10 05:39:12;;;;;;;18.38;6.22;;;5.00;99.90;;;;;;12561424;28;20059;-85
2023/01/10 05:45:14;;;;;;;19.95;6.63;;;5.10;99.90;;;;;;12582899;28;20045;-85
2023/01/10 05:51:16;;;;;;;15.10;6.13;;;5.10;99.90;;;;;;12569427;28;20420;-86
2023/01/10 05:57:18;;;;;;;19.50;6.55;;;5.20;99.90;;;;;;12580755;28;20144;-85
2023/01/10 06:03:20;;;;;;;18.58;6.40;;;5.10;99.90;;;;;;12587835;28;20044;-85
2023/01/10 06:09:21;;;;;;;29.02;6.75;;;5.20;99.90;;;;;;12572017;28;20051;-85
2023/01/10 06:15:23;;;;;;;21.33;6.93;;;5.20;99.90;;;;;;12575525;28;20144;-85
2023/01/10 06:21:25;;;;;;;19.83;7.10;;;5.30;99.90;;;;;;12589292;28;20067;-85
2023/01/10 06:27:27;;;;;;;20.50;6.53;;;5.30;99.90;;;;;;12588003;28;20527;-85
2023/01/10 06:33:28;;;;;;;20.67;7.60;;;5.10;99.90;;;;;;12585849;28;20500;-85
2023/01/10 06:39:30;;;;;;;22.90;7.50;;;5.00;99.90;;;;;;12590453;28;20056;-85
2023/01/10 06:45:32;;;;;;;21.20;7.40;;;5.00;99.90;;;;;;12585478;28;20044;-86
2023/01/10 06:51:34;;;;;;;21.45;7.22;;;5.00;99.90;;;;;;12568373;28;20051;-86
2023/01/10 06:57:37;;;;;;;22.65;7.93;;;5.10;99.90;;;;;;12597138;28;20059;-85
2023/01/10 07:03:39;;;;;;;19.40;8.32;;;5.10;99.90;;;;;;12580003;28;20041;-85
2023/01/10 07:09:41;;;;;;;22.63;9.02;;;5.10;99.90;;;;;;12601207;28;20048;-85
2023/01/10 07:15:43;;;;;;;22.25;9.48;;;5.10;99.90;;;;;;12586212;28;20036;-86
2023/01/10 07:21:45;;;;;;;20.25;10.10;;;5.00;99.90;;;;;;12590335;28;20044;-86
2023/01/10 07:27:47;;;;;;;28.98;9.77;;;5.00;99.90;;;;;;12580377;28;20143;-86
2023/01/10 07:33:52;;;;;;;26.20;11.60;;;4.90;99.90;;;;;;12559782;28;20059;-87
2023/01/10 07:39:55;;;;;;;25.83;10.60;;;5.00;99.90;;;;;;12597047;28;20040;-86
2023/01/10 07:46:01;;;;;;;29.75;12.68;;;5.10;99.90;;;;;;12585850;28;20044;-86
2023/01/10 07:52:03;;;;;;;33.70;11.73;;;5.20;99.90;;;;;;12586472;28;20037;-86
2023/01/10 07:58:06;;;;;;;27.15;12.98;;;5.30;99.90;;;;;;12573089;28;20037;-87
2023/01/10 08:04:08;;;;;;;31.95;13.35;;;5.30;99.90;;;;;;12550522;28;20186;-87
2023/01/10 08:10:10;;;;;;;29.83;13.57;;;5.40;99.90;;;;;;12567426;28;20056;-86
2023/01/10 08:16:14;;;;;;;35.25;14.45;;;5.40;99.90;;;;;;12568201;28;20186;-87
2023/01/10 08:22:15;;;;;;;27.27;13.80;;;5.30;99.90;;;;;;12566755;28;20131;-86
2023/01/10 08:28:17;;;;;;;37.55;14.55;;;5.40;99.90;;;;;;12590470;28;20052;-86
2023/01/10 08:34:19;;;;;;;29.23;14.32;;;5.40;99.90;;;;;;12570098;28;20053;-86
2023/01/10 08:40:21;;;;;;;32.58;13.65;;;5.40;99.90;;;;;;12594710;28;20044;-86
2023/01/10 08:46:23;;;;;;;27.17;12.00;;;5.40;99.90;;;;;;12584047;28;20408;-87
2023/01/10 08:52:25;;;;;;;31.95;12.50;;;5.50;99.90;;;;;;12583190;28;20041;-86
2023/01/10 08:58:27;;;;;;;25.08;12.70;;;5.50;99.90;;;;;;12566019;28;20064;-85
2023/01/10 09:04:28;;;;;;;30.42;12.50;;;5.50;99.90;;;;;;12585192;28;20048;-86
2023/01/10 09:10:33;;;;;;;;;;;5.60;99.90;;;;;;12581907;28;20041;-86
2023/01/10 09:16:35;;;;;;;32.17;13.82;;;5.60;99.90;;;;;;12583366;28;19942;-86
2023/01/10 09:22:37;;;;;;;26.27;11.23;;;5.70;99.90;;;;;;12585911;28;20089;-86
2023/01/10 09:28:39;;;;;;;33.50;10.90;;;5.70;99.90;;;;;;12595387;28;20503;-86
2023/01/10 09:34:41;;;;;;;30.58;11.65;;;5.70;99.90;;;;;;12590371;28;20053;-86
2023/01/10 09:40:58;;;;;;;35.88;12.20;;;5.70;99.90;;;;;;12584376;28;20052;-86
2023/01/10 09:47:15;;;;;;;27.13;10.73;;;5.70;99.90;;;;;;12573787;28;20381;-87
2023/01/10 09:53:26;;;;;;;29.02;11.50;;;5.60;99.90;;;;;;12572387;28;20037;-86
2023/01/10 09:59:35;;;;;;;;;;;5.70;99.90;;;;;;12588096;28;20076;-86
2023/01/10 10:05:37;;;;;;;36.88;11.80;;;5.80;99.90;;;;;;12573586;28;20277;-86
2023/01/10 10:11:52;;;;;;;27.30;10.93;;;5.80;99.90;;;;;;12595243;28;20045;-86
2023/01/10 10:18:15;;;;;;;32.25;10.38;;;5.90;99.90;;;;;;12574335;28;20052;-86
2023/01/10 10:24:17;;;;;;;30.80;10.27;;;5.90;99.90;;;;;;12560548;28;20036;-86
2023/01/10 10:30:22;;;;;;;38.33;12.55;;;6.00;99.90;;;;;;12600528;28;20117;-86
2023/01/10 10:36:57;;;;;;;26.42;11.00;;;6.00;99.90;;;;;;12569772;28;20064;-85
2023/01/10 10:43:12;;;;;;;28.08;11.43;;;6.00;99.90;;;;;;12542917;28;20071;-85
2023/01/10 10:49:31;;;;;;;28.65;9.45;;;6.00;99.90;;;;;;12559051;28;20067;-86
2023/01/10 10:55:37;;;;;;;33.90;11.50;;;6.00;99.90;;;;;;12583210;28;20536;-86
2023/01/10 11:01:42;;;;;;;26.70;9.93;;;6.10;99.90;;;;;;12571716;28;20063;-85
2023/01/10 11:07:44;;;;;;;32.05;9.07;;;6.10;99.90;;;;;;12590770;28;20048;-86
2023/01/10 11:13:52;;;;;;;28.73;9.10;;;6.20;99.90;;;;;;12570595;28;20377;-86
2023/01/10 11:20:15;;;;;;;21.77;8.43;;;6.20;99.90;;;;;;12592193;28;20053;-87
2023/01/10 11:26:39;;;;;;;20.80;7.75;;;6.20;99.90;;;;;;12573250;28;20052;-86
2023/01/10 11:32:56;;;;;;;28.35;8.30;;;6.20;99.90;;;;;;12571214;28;20183;-86
2023/01/10 11:39:03;;;;;;;35.13;8.43;;;6.30;99.90;;;;;;12583499;28;20040;-86
2023/01/10 11:45:31;;;;;;;30.60;8.70;;;6.30;99.90;;;;;;12562445;28;20153;-86
2023/01/10 11:51:44;;;;;;;28.58;9.30;;;6.30;99.90;;;;;;12582245;28;20131;-86
2023/01/10 11:57:58;;;;;;;27.70;8.55;;;6.40;99.90;;;;;;12592197;28;20055;-86
2023/01/10 12:04:00;;;;;;;30.67;8.57;;;6.40;99.90;;;;;;12584701;28;20040;-86
2023/01/10 12:10:02;;;;;;;31.98;7.78;;;6.50;99.90;;;;;;12584918;28;20048;-87
2023/01/10 12:16:31;;;;;;;26.35;6.78;;;6.60;99.90;;;;;;12561377;28;20055;-86
2023/01/10 12:22:44;;;;;;;19.92;6.25;;;6.60;99.90;;;;;;12552040;28;20801;-86
2023/01/10 12:28:59;;;;;;;28.20;7.60;;;6.70;99.90;;;;;;12563972;28;20074;-86
2023/01/10 12:35:08;;;;;;;27.50;6.97;;;6.70;99.90;;;;;;12552105;28;20053;-86
2023/01/10 12:44:09;;;;;;;21.17;5.90;;;6.80;99.90;;;;;;12567532;28;20045;-86
2023/01/10 12:47:45;;;;;;;19.30;5.47;;;6.80;99.90;;;;;;12582850;28;20045;-86
2023/01/10 12:53:54;;;;;;;25.58;6.07;;;6.70;99.90;;;;;;12583024;28;20036;-86
2023/01/10 13:00:00;;;;;;;21.98;5.85;;;6.70;99.90;;;;;;12580115;28;20045;-86
2023/01/10 13:06:02;;;;;;;25.13;5.05;;;6.70;99.90;;;;;;12600577;28;20085;-86
2023/01/10 13:12:32;;;;;;;32.25;5.40;;;6.60;99.90;;;;;;12595833;28;20170;-87
2023/01/10 13:18:34;;;;;;;19.20;4.88;;;6.60;99.90;;;;;;12582188;28;20412;-87
2023/01/10 13:24:36;;;;;;;24.25;4.72;;;6.60;99.90;;;;;;12596074;28;20496;-85
2023/01/10 13:30:39;;;;;;;19.30;4.57;;;6.60;99.90;;;;;;12600133;28;20040;-86
2023/01/10 13:36:47;;;;;;;22.55;4.22;;;6.60;99.90;;;;;;12569656;28;20055;-86
2023/01/10 13:43:28;;;;;;;23.67;3.90;;;6.60;99.90;;;;;;12599649;28;20036;-86
2023/01/10 13:49:42;;;;;;;16.33;3.50;;;6.50;99.90;;;;;;12584175;28;20182;-86
2023/01/10 13:55:52;;;;;;;16.73;3.63;;;6.50;99.90;;;;;;12577337;28;20398;-86
2023/01/10 14:08:21;;;;;;;21.88;4.28;;;6.50;99.90;;;;;;12588205;28;20045;-86
2023/01/10 14:14:32;;;;;;;25.77;4.07;;;6.50;99.90;;;;;;12579105;28;20076;-86
2023/01/10 14:20:35;;;;;;;24.52;4.47;;;6.40;99.90;;;;;;12592621;28;20052;-85
2023/01/10 14:26:39;;;;;;;19.52;4.18;;;6.50;99.90;;;;;;12566335;28;20179;-86
2023/01/10 14:32:42;;;;;;;22.65;3.90;;;6.50;99.90;;;;;;12560270;28;20123;-85
2023/01/10 14:38:45;;;;;;;16.70;3.63;;;6.40;99.90;;;;;;12585694;28;20044;-86
2023/01/10 14:44:56;;;;;;;19.02;3.53;;;6.40;99.90;;;;;;12588241;28;20400;-86
2023/01/10 14:51:19;;;;;;;16.65;2.72;;;6.30;99.90;;;;;;12591074;28;20052;-86
2023/01/10 14:57:22;;;;;;;15.98;2.70;;;6.30;99.90;;;;;;12572656;28;20079;-86
2023/01/10 15:03:24;;;;;;;15.23;3.03;;;6.20;99.90;;;;;;12572584;28;20528;-86
2023/01/10 15:09:28;;;;;;;18.55;2.95;;;6.20;99.90;;;;;;12578168;28;20048;-85
2023/01/10 15:15:33;;;;;;;13.68;2.25;;;6.20;99.90;;;;;;12555530;28;20044;-86
2023/01/10 15:21:42;;;;;;;15.95;2.60;;;6.20;99.90;;;;;;12586447;28;20040;-85
2023/01/10 15:27:46;;;;;;;12.35;2.40;;;6.10;99.90;;;;;;12580840;28;20048;-86
2023/01/10 15:33:55;;;;;;;14.30;2.58;;;6.10;99.90;;;;;;12583821;28;20045;-86
2023/01/10 15:39:57;;;;;;;19.27;2.42;;;6.10;99.90;;;;;;12578152;28;20037;-85
2023/01/10 15:46:01;;;;;;;19.63;2.50;;;6.00;99.90;;;;;;12578404;28;20041;-85
2023/01/10 15:52:03;;;;;;;14.43;2.75;;;6.10;99.90;;;;;;12567335;28;20560;-86
2023/01/10 15:58:27;;;;;;;17.55;2.45;;;6.00;99.90;;;;;;12586928;28;20047;-85
2023/01/10 16:04:33;;;;;;;11.87;2.30;;;6.10;99.90;;;;;;12571612;28;20072;-85
2023/01/10 16:10:36;;;;;;;13.88;2.00;;;6.10;99.90;;;;;;12564262;28;20457;-85
2023/01/10 16:16:38;;;;;;;14.95;2.28;;;6.10;99.90;;;;;;12567698;28;20056;-85
2023/01/10 16:22:41;;;;;;;14.23;2.10;;;6.10;99.90;;;;;;12568692;28;20051;-85
2023/01/10 16:28:43;;;;;;;11.57;2.60;;;6.10;99.90;;;;;;12584117;28;20053;-85
2023/01/10 16:34:46;;;;;;;17.88;2.50;;;6.00;99.90;;;;;;12590455;28;20052;-85
2023/01/10 16:40:50;;;;;;;11.40;2.00;;;6.10;99.90;;;;;;12566322;28;20074;-85
2023/01/10 16:46:53;;;;;;;14.35;2.35;;;6.00;99.90;;;;;;12553131;28;20055;-85
2023/01/10 16:52:54;;;;;;;14.82;2.33;;;6.10;99.90;;;;;;12575392;28;20040;-84
2023/01/10 16:58:57;;;;;;;11.13;2.22;;;6.10;99.90;;;;;;12565595;28;20055;-85
2023/01/10 17:04:58;;;;;;;10.68;1.83;;;6.10;99.90;;;;;;12579035;28;20033;-85
2023/01/10 17:11:05;;;;;;;10.20;1.92;;;6.10;99.90;;;;;;12575229;28;20393;-85
2023/01/10 17:17:09;;;;;;;19.08;2.42;;;6.10;99.90;;;;;;12582304;28;20048;-85
2023/01/10 17:23:13;;;;;;;13.30;2.28;;;6.10;99.90;;;;;;12580956;28;20155;-84
2023/01/10 17:29:15;;;;;;;12.77;2.27;;;6.10;99.90;;;;;;12568537;28;20056;-85
2023/01/10 17:35:17;;;;;;;11.35;2.08;;;6.10;99.90;;;;;;12564215;28;20693;-85
2023/01/10 17:41:19;;;;;;;14.32;2.05;;;6.10;99.90;;;;;;12579955;28;20135;-85
2023/01/10 17:47:21;;;;;;;11.95;1.90;;;6.20;99.90;;;;;;12561794;28;20535;-85
2023/01/10 17:53:23;;;;;;;10.27;2.00;;;6.10;99.90;;;;;;12587563;28;20044;-84
2023/01/10 17:59:25;;;;;;;12.10;2.05;;;6.10;99.90;;;;;;12573580;28;20477;-85
2023/01/10 18:05:27;;;;;;;12.82;2.05;;;6.10;99.90;;;;;;12575461;28;20045;-84
2023/01/10 18:11:31;;;;;;;9.55;1.88;;;6.10;99.90;;;;;;12578037;28;20079;-85
2023/01/10 18:17:33;;;;;;;16.77;2.40;;;6.20;99.90;;;;;;12594102;28;20040;-86
2023/01/10 18:23:35;;;;;;;16.85;3.88;;;6.20;99.90;;;;;;12574499;28;20123;-85
2023/01/10 18:29:36;;;;;;;10.43;1.85;;;6.10;99.90;;;;;;12582799;28;20064;-85
2023/01/10 18:35:38;;;;;;;10.07;1.90;;;6.10;99.90;;;;;;12541461;28;20056;-85
2023/01/10 18:41:40;;;;;;;17.92;1.95;;;6.10;99.90;;;;;;12590287;28;20049;-84
2023/01/10 18:47:42;;;;;;;14.10;1.75;;;6.20;99.90;;;;;;12571518;28;20045;-85
2023/01/10 18:53:44;;;;;;;14.27;2.08;;;6.10;99.90;;;;;;12573757;28;20040;-85
2023/01/10 18:59:46;;;;;;;9.50;2.00;;;6.20;99.90;;;;;;12568277;28;20045;-85
2023/01/10 19:05:48;;;;;;;9.77;2.00;;;6.30;99.90;;;;;;12582818;28;20036;-85
2023/01/10 19:11:50;;;;;;;14.45;2.35;;;6.20;99.90;;;;;;12587374;28;20037;-85
2023/01/10 19:17:54;;;;;;;7.80;1.92;;;6.20;99.90;;;;;;12588600;28;20176;-85
2023/01/10 19:23:59;;;;;;;16.60;2.47;;;6.10;99.90;;;;;;12567523;28;20060;-85
2023/01/10 19:30:01;;;;;;;16.77;2.45;;;5.90;99.90;;;;;;12585695;28;20044;-85
2023/01/10 19:36:05;;;;;;;11.32;2.40;;;5.70;99.90;;;;;;12585502;28;20497;-86
2023/01/10 19:42:07;;;;;;;12.88;2.45;;;5.50;99.90;;;;;;12588081;28;20041;-85
2023/01/10 19:48:09;;;;;;;16.60;3.40;;;5.50;99.90;;;;;;12566680;28;20218;-86
2023/01/10 19:54:10;;;;;;;15.82;2.63;;;5.40;99.90;;;;;;12579972;28;20045;-86
2023/01/10 20:00:13;;;;;;;14.98;2.65;;;5.40;99.90;;;;;;12581425;28;20052;-85
2023/01/10 20:06:18;;;;;;;13.73;2.78;;;5.30;99.90;;;;;;12576789;28;20063;-84
2023/01/10 20:12:20;;;;;;;16.17;2.63;;;5.30;99.90;;;;;;12572777;28;20048;-86
2023/01/10 20:18:22;;;;;;;17.38;2.85;;;5.20;99.90;;;;;;12569540;28;20077;-85
2023/01/10 20:24:24;;;;;;;16.92;2.88;;;5.20;99.90;;;;;;12589344;28;20070;-85
2023/01/10 20:30:25;;;;;;;14.80;2.55;;;5.20;99.90;;;;;;12573131;28;20048;-86
2023/01/10 20:36:28;;;;;;;18.13;4.15;;;5.20;99.90;;;;;;12568860;28;20064;-85
2023/01/10 20:42:31;;;;;;;13.50;2.80;;;5.20;99.90;;;;;;12573956;28;20044;-86
2023/01/10 20:48:33;;;;;;;12.68;2.83;;;5.20;99.90;;;;;;12588006;28;20048;-84
2023/01/10 20:54:37;;;;;;;14.63;2.67;;;5.20;99.90;;;;;;12590783;28;20045;-87
2023/01/10 21:00:39;;;;;;;12.23;2.67;;;5.20;99.90;;;;;;12586966;28;20052;-85
2023/01/10 21:06:41;;;;;;;10.70;2.60;;;5.30;99.90;;;;;;12585618;28;20052;-85
2023/01/10 21:12:42;;;;;;;14.93;3.33;;;5.30;99.90;;;;;;12574224;28;20041;-85
2023/01/10 21:18:45;;;;;;;13.70;2.58;;;5.30;99.90;;;;;;12574443;28;20055;-85
2023/01/10 21:24:47;;;;;;;11.63;2.50;;;5.30;99.90;;;;;;12575217;28;20037;-86
2023/01/10 21:30:51;;;;;;;10.68;2.88;;;5.40;99.90;;;;;;12596003;28;20040;-86
2023/01/10 21:36:53;;;;;;;11.75;2.08;;;5.40;99.90;;;;;;12596938;28;20053;-85
2023/01/10 21:42:55;;;;;;;10.05;2.22;;;5.40;99.90;;;;;;12575397;28;20074;-85
2023/01/10 21:48:57;;;;;;;10.68;2.40;;;5.50;99.90;;;;;;12587349;28;20097;-85
2023/01/10 21:54:58;;;;;;;5.60;1.70;;;5.50;99.90;;;;;;12596943;28;20036;-85
2023/01/10 22:01:00;;;;;;;8.23;1.70;;;5.60;99.90;;;;;;12575534;28;20052;-86
2023/01/10 22:07:02;;;;;;;4.97;1.55;;;5.70;99.90;;;;;;12576381;28;20090;-85
2023/01/10 22:13:04;;;;;;;9.20;1.25;;;5.80;99.90;;;;;;12582260;28;20048;-85
2023/01/10 22:19:06;;;;;;;6.20;1.48;;;5.70;99.90;;;;;;12588935;28;20091;-85
2023/01/10 22:25:08;;;;;;;4.43;1.35;;;5.70;99.90;;;;;;12593829;28;20085;-86
2023/01/10 22:31:10;;;;;;;2.95;1.20;;;5.60;99.90;;;;;;12569136;28;20044;-86
2023/01/10 22:37:12;;;;;;;9.88;1.70;;;5.60;99.90;;;;;;12589124;28;20504;-85
2023/01/10 22:43:13;;;;;;;4.20;1.10;;;5.60;99.90;;;;;;12588132;28;20047;-86
2023/01/10 22:49:15;;;;;;;5.05;1.00;;;5.70;99.90;;;;;;12584514;28;20053;-86
2023/01/10 22:55:17;;;;;;;4.90;1.30;;;5.70;99.90;;;;;;12591723;28;20109;-85
2023/01/10 23:01:21;;;;;;;5.55;1.48;;;5.70;99.90;;;;;;12581456;28;20052;-86
2023/01/10 23:07:23;;;;;;;3.40;0.90;;;5.70;99.90;;;;;;12563971;28;20083;-86
2023/01/10 23:13:25;;;;;;;2.33;0.80;;;5.90;99.90;;;;;;12570750;28;20040;-85
2023/01/10 23:19:26;;;;;;;2.53;0.80;;;5.90;99.90;;;;;;12571878;28;20044;-86
2023/01/10 23:25:28;;;;;;;1.73;0.57;;;6.00;99.90;;;;;;12586141;28;20044;-85
2023/01/10 23:31:30;;;;;;;0.80;0.40;;;6.10;99.90;;;;;;12596724;28;20045;-85
2023/01/10 23:37:32;;;;;;;2.45;0.57;;;6.20;99.90;;;;;;12583143;28;20060;-86
2023/01/10 23:43:34;;;;;;;1.48;0.40;;;6.30;99.90;;;;;;12588620;28;20058;-85
2023/01/10 23:49:36;;;;;;;1.77;0.60;;;6.30;99.90;;;;;;12588326;28;20060;-85
2023/01/10 23:55:37;;;;;;;2.05;0.70;;;6.50;99.90;;;;;;12598140;28;20057;-85
